sensor_id;sensor_type;location;lat;lon;timestamp;P1;durP1;ratioP1;P2;durP2;ratioP2
32864;SDS011;19219;44.500;11.188;2023-06-14T00:00:13;13.13;;;6.03;;
32864;SDS011;19219;44.500;11.188;2023-06-14T00:02:39;14.43;;;5.82;;
32864;SDS011;19219;44.500;11.188;2023-06-14T00:05:06;28.75;;;6.55;;
32864;SDS011;19219;44.500;11.188;2023-06-14T00:07:36;20.80;;;5.57;;
32864;SDS011;19219;44.500;11.188;2023-06-14T00:10:07;19.10;;;5.88;;
32864;SDS011;19219;44.500;11.188;2023-06-14T00:12:33;22.60;;;5.38;;
32864;SDS011;19219;44.500;11.188;2023-06-14T00:15:00;21.13;;;5.53;;
32864;SDS011;19219;44.500;11.188;2023-06-14T00:17:29;9.52;;;5.22;;
32864;SDS011;19219;44.500;11.188;2023-06-14T00:19:58;16.75;;;6.03;;
32864;SDS011;19219;44.500;11.188;2023-06-14T00:22:24;9.75;;;4.88;;
32864;SDS011;19219;44.500;11.188;2023-06-14T00:24:51;8.95;;;4.60;;
32864;SDS011;19219;44.500;11.188;2023-06-14T00:27:16;12.05;;;5.45;;
32864;SDS011;19219;44.500;11.188;2023-06-14T00:29:42;12.32;;;5.18;;
32864;SDS011;19219;44.500;11.188;2023-06-14T00:32:08;8.85;;;4.90;;
32864;SDS011;19219;44.500;11.188;2023-06-14T00:34:34;10.68;;;4.88;;
32864;SDS011;19219;44.500;11.188;2023-06-14T00:36:59;12.07;;;5.10;;
32864;SDS011;19219;44.500;11.188;2023-06-14T00:39:25;8.23;;;5.40;;
32864;SDS011;19219;44.500;11.188;2023-06-14T00:41:51;12.63;;;4.55;;
32864;SDS011;19219;44.500;11.188;2023-06-14T00:44:17;12.55;;;5.10;;
32864;SDS011;19219;44.500;11.188;2023-06-14T00:46:45;8.90;;;5.00;;
32864;SDS011;19219;44.500;11.188;2023-06-14T00:49:12;10.15;;;4.65;;
32864;SDS011;19219;44.500;11.188;2023-06-14T00:51:40;6.90;;;4.93;;
32864;SDS011;19219;44.500;11.188;2023-06-14T00:54:06;10.90;;;5.38;;
32864;SDS011;19219;44.500;11.188;2023-06-14T00:56:32;15.23;;;4.82;;
32864;SDS011;19219;44.500;11.188;2023-06-14T00:58:58;13.70;;;4.50;;
32864;SDS011;19219;44.500;11.188;2023-06-14T01:01:24;9.57;;;4.20;;
32864;SDS011;19219;44.500;11.188;2023-06-14T01:03:50;14.55;;;4.57;;
32864;SDS011;19219;44.500;11.188;2023-06-14T01:15:07;9.88;;;5.38;;
32864;SDS011;19219;44.500;11.188;2023-06-14T01:17:34;13.77;;;4.65;;
32864;SDS011;19219;44.500;11.188;2023-06-14T01:20:01;13.20;;;4.55;;
32864;SDS011;19219;44.500;11.188;2023-06-14T01:22:28;10.60;;;6.95;;
32864;SDS011;19219;44.500;11.188;2023-06-14T01:24:54;10.00;;;5.07;;
32864;SDS011;19219;44.500;11.188;2023-06-14T01:27:23;16.15;;;6.28;;
32864;SDS011;19219;44.500;11.188;2023-06-14T01:29:53;16.50;;;4.88;;
32864;SDS011;19219;44.500;11.188;2023-06-14T01:32:22;9.38;;;4.53;;
32864;SDS011;19219;44.500;11.188;2023-06-14T01:34:49;13.85;;;5.20;;
32864;SDS011;19219;44.500;11.188;2023-06-14T01:37:15;10.30;;;4.28;;
32864;SDS011;19219;44.500;11.188;2023-06-14T01:39:42;8.25;;;4.18;;
32864;SDS011;19219;44.500;11.188;2023-06-14T01:42:10;12.25;;;3.95;;
32864;SDS011;19219;44.500;11.188;2023-06-14T01:44:37;9.50;;;4.13;;
32864;SDS011;19219;44.500;11.188;2023-06-14T01:47:04;7.65;;;4.50;;
32864;SDS011;19219;44.500;11.188;2023-06-14T01:49:33;8.45;;;4.35;;
32864;SDS011;19219;44.500;11.188;2023-06-14T01:52:00;7.43;;;4.65;;
32864;SDS011;19219;44.500;11.188;2023-06-14T01:54:25;6.80;;;4.15;;
32864;SDS011;19219;44.500;11.188;2023-06-14T01:56:52;11.30;;;4.28;;
32864;SDS011;19219;44.500;11.188;2023-06-14T01:59:18;8.55;;;5.38;;
32864;SDS011;19219;44.500;11.188;2023-06-14T02:01:43;6.70;;;4.32;;
32864;SDS011;19219;44.500;11.188;2023-06-14T02:04:11;10.38;;;4.15;;
32864;SDS011;19219;44.500;11.188;2023-06-14T02:06:36;8.43;;;4.47;;
32864;SDS011;19219;44.500;11.188;2023-06-14T02:09:02;9.70;;;4.13;;
32864;SDS011;19219;44.500;11.188;2023-06-14T02:11:29;7.25;;;3.88;;
32864;SDS011;19219;44.500;11.188;2023-06-14T02:13:55;11.73;;;6.15;;
32864;SDS011;19219;44.500;11.188;2023-06-14T02:16:21;10.75;;;5.75;;
32864;SDS011;19219;44.500;11.188;2023-06-14T02:18:47;9.02;;;4.90;;
32864;SDS011;19219;44.500;11.188;2023-06-14T02:21:13;12.55;;;5.07;;
32864;SDS011;19219;44.500;11.188;2023-06-14T02:23:39;6.68;;;4.15;;
32864;SDS011;19219;44.500;11.188;2023-06-14T02:26:05;6.10;;;3.78;;
32864;SDS011;19219;44.500;11.188;2023-06-14T02:28:31;10.15;;;4.97;;
32864;SDS011;19219;44.500;11.188;2023-06-14T02:30:56;12.30;;;4.25;;
32864;SDS011;19219;44.500;11.188;2023-06-14T02:33:22;9.52;;;5.32;;
32864;SDS011;19219;44.500;11.188;2023-06-14T02:35:47;12.13;;;4.22;;
32864;SDS011;19219;44.500;11.188;2023-06-14T02:38:13;10.15;;;4.47;;
32864;SDS011;19219;44.500;11.188;2023-06-14T02:40:39;5.82;;;3.60;;
32864;SDS011;19219;44.500;11.188;2023-06-14T02:43:07;8.20;;;4.43;;
32864;SDS011;19219;44.500;11.188;2023-06-14T02:45:33;8.68;;;4.75;;
32864;SDS011;19219;44.500;11.188;2023-06-14T02:47:58;10.88;;;3.92;;
32864;SDS011;19219;44.500;11.188;2023-06-14T02:50:24;9.88;;;4.63;;
32864;SDS011;19219;44.500;11.188;2023-06-14T02:52:50;9.55;;;4.82;;
32864;SDS011;19219;44.500;11.188;2023-06-14T02:55:17;15.27;;;5.07;;
32864;SDS011;19219;44.500;11.188;2023-06-14T02:57:43;8.23;;;4.90;;
32864;SDS011;19219;44.500;11.188;2023-06-14T03:00:08;10.15;;;5.00;;
32864;SDS011;19219;44.500;11.188;2023-06-14T03:02:35;15.77;;;4.70;;
32864;SDS011;19219;44.500;11.188;2023-06-14T03:05:01;9.95;;;4.45;;
32864;SDS011;19219;44.500;11.188;2023-06-14T03:07:28;15.20;;;4.90;;
32864;SDS011;19219;44.500;11.188;2023-06-14T03:09:54;7.15;;;4.45;;
32864;SDS011;19219;44.500;11.188;2023-06-14T03:12:20;8.70;;;4.50;;
32864;SDS011;19219;44.500;11.188;2023-06-14T03:14:46;8.73;;;4.63;;
32864;SDS011;19219;44.500;11.188;2023-06-14T03:17:11;13.45;;;5.72;;
32864;SDS011;19219;44.500;11.188;2023-06-14T03:19:37;11.25;;;4.40;;
32864;SDS011;19219;44.500;11.188;2023-06-14T03:22:03;8.93;;;5.35;;
32864;SDS011;19219;44.500;11.188;2023-06-14T03:24:29;7.82;;;4.47;;
32864;SDS011;19219;44.500;11.188;2023-06-14T03:26:57;10.75;;;5.03;;
32864;SDS011;19219;44.500;11.188;2023-06-14T03:29:22;7.18;;;4.85;;
32864;SDS011;19219;44.500;11.188;2023-06-14T03:32:21;11.55;;;5.28;;
32864;SDS011;19219;44.500;11.188;2023-06-14T03:34:40;18.90;;;9.48;;
32864;SDS011;19219;44.500;11.188;2023-06-14T03:37:06;21.40;;;11.70;;
32864;SDS011;19219;44.500;11.188;2023-06-14T03:39:31;15.05;;;7.35;;
32864;SDS011;19219;44.500;11.188;2023-06-14T03:41:57;9.60;;;4.57;;
32864;SDS011;19219;44.500;11.188;2023-06-14T03:44:24;12.57;;;5.05;;
32864;SDS011;19219;44.500;11.188;2023-06-14T03:46:51;10.65;;;5.28;;
32864;SDS011;19219;44.500;11.188;2023-06-14T03:49:18;6.85;;;4.40;;
32864;SDS011;19219;44.500;11.188;2023-06-14T03:51:43;12.95;;;4.82;;
32864;SDS011;19219;44.500;11.188;2023-06-14T03:54:10;53.78;;;24.67;;
32864;SDS011;19219;44.500;11.188;2023-06-14T03:56:35;35.05;;;16.77;;
32864;SDS011;19219;44.500;11.188;2023-06-14T03:59:01;9.18;;;5.53;;
32864;SDS011;19219;44.500;11.188;2023-06-14T04:01:27;8.98;;;4.63;;
32864;SDS011;19219;44.500;11.188;2023-06-14T04:03:55;10.10;;;4.28;;
32864;SDS011;19219;44.500;11.188;2023-06-14T04:06:22;9.90;;;4.53;;
32864;SDS011;19219;44.500;11.188;2023-06-14T04:08:50;8.77;;;4.25;;
32864;SDS011;19219;44.500;11.188;2023-06-14T04:11:17;10.10;;;4.90;;
32864;SDS011;19219;44.500;11.188;2023-06-14T04:13:42;5.45;;;4.07;;
32864;SDS011;19219;44.500;11.188;2023-06-14T04:16:09;5.72;;;3.55;;
32864;SDS011;19219;44.500;11.188;2023-06-14T04:18:34;7.55;;;4.60;;
32864;SDS011;19219;44.500;11.188;2023-06-14T04:21:00;8.77;;;4.45;;
32864;SDS011;19219;44.500;11.188;2023-06-14T04:23:26;7.97;;;4.30;;
32864;SDS011;19219;44.500;11.188;2023-06-14T04:25:54;8.23;;;3.83;;
32864;SDS011;19219;44.500;11.188;2023-06-14T04:28:26;9.18;;;3.90;;
32864;SDS011;19219;44.500;11.188;2023-06-14T04:30:52;9.40;;;4.53;;
32864;SDS011;19219;44.500;11.188;2023-06-14T04:33:18;9.85;;;4.63;;
32864;SDS011;19219;44.500;11.188;2023-06-14T04:35:44;11.13;;;5.50;;
32864;SDS011;19219;44.500;11.188;2023-06-14T04:38:12;13.98;;;4.85;;
32864;SDS011;19219;44.500;11.188;2023-06-14T04:40:38;6.07;;;4.30;;
32864;SDS011;19219;44.500;11.188;2023-06-14T04:43:08;10.48;;;4.65;;
32864;SDS011;19219;44.500;11.188;2023-06-14T04:45:37;9.07;;;5.10;;
32864;SDS011;19219;44.500;11.188;2023-06-14T04:48:04;10.18;;;4.90;;
32864;SDS011;19219;44.500;11.188;2023-06-14T04:50:31;16.17;;;5.53;;
32864;SDS011;19219;44.500;11.188;2023-06-14T04:52:58;13.02;;;5.25;;
32864;SDS011;19219;44.500;11.188;2023-06-14T04:55:24;10.00;;;5.30;;
32864;SDS011;19219;44.500;11.188;2023-06-14T04:57:51;13.52;;;5.88;;
32864;SDS011;19219;44.500;11.188;2023-06-14T05:00:18;13.00;;;6.35;;
32864;SDS011;19219;44.500;11.188;2023-06-14T05:02:45;12.55;;;6.70;;
32864;SDS011;19219;44.500;11.188;2023-06-14T05:05:12;9.75;;;6.07;;
32864;SDS011;19219;44.500;11.188;2023-06-14T05:07:38;13.07;;;6.45;;
32864;SDS011;19219;44.500;11.188;2023-06-14T05:10:03;14.82;;;5.88;;
32864;SDS011;19219;44.500;11.188;2023-06-14T05:12:30;9.32;;;5.10;;
32864;SDS011;19219;44.500;11.188;2023-06-14T05:14:55;8.60;;;5.22;;
32864;SDS011;19219;44.500;11.188;2023-06-14T05:17:23;14.52;;;4.32;;
32864;SDS011;19219;44.500;11.188;2023-06-14T05:19:49;4.57;;;3.65;;
32864;SDS011;19219;44.500;11.188;2023-06-14T05:22:14;9.10;;;5.60;;
32864;SDS011;19219;44.500;11.188;2023-06-14T05:24:40;3.85;;;2.92;;
32864;SDS011;19219;44.500;11.188;2023-06-14T05:27:07;7.97;;;4.07;;
32864;SDS011;19219;44.500;11.188;2023-06-14T05:29:33;6.90;;;4.93;;
32864;SDS011;19219;44.500;11.188;2023-06-14T05:31:58;7.13;;;3.60;;
32864;SDS011;19219;44.500;11.188;2023-06-14T05:34:24;11.38;;;3.97;;
32864;SDS011;19219;44.500;11.188;2023-06-14T05:36:50;7.00;;;3.83;;
32864;SDS011;19219;44.500;11.188;2023-06-14T05:39:16;6.78;;;4.53;;
32864;SDS011;19219;44.500;11.188;2023-06-14T05:41:42;5.55;;;3.88;;
32864;SDS011;19219;44.500;11.188;2023-06-14T05:44:07;6.53;;;4.10;;
32864;SDS011;19219;44.500;11.188;2023-06-14T05:46:33;10.25;;;5.05;;
32864;SDS011;19219;44.500;11.188;2023-06-14T05:48:59;9.57;;;4.40;;
32864;SDS011;19219;44.500;11.188;2023-06-14T05:51:25;12.48;;;4.80;;
32864;SDS011;19219;44.500;11.188;2023-06-14T05:53:51;6.93;;;3.72;;
32864;SDS011;19219;44.500;11.188;2023-06-14T05:56:17;4.88;;;3.58;;
32864;SDS011;19219;44.500;11.188;2023-06-14T05:58:43;8.25;;;3.85;;
32864;SDS011;19219;44.500;11.188;2023-06-14T06:01:10;6.53;;;3.88;;
32864;SDS011;19219;44.500;11.188;2023-06-14T06:03:36;6.65;;;4.15;;
32864;SDS011;19219;44.500;11.188;2023-06-14T06:06:02;7.78;;;4.13;;
32864;SDS011;19219;44.500;11.188;2023-06-14T06:08:28;8.55;;;4.32;;
32864;SDS011;19219;44.500;11.188;2023-06-14T06:10:54;9.95;;;4.43;;
32864;SDS011;19219;44.500;11.188;2023-06-14T06:13:20;6.60;;;4.22;;
32864;SDS011;19219;44.500;11.188;2023-06-14T06:15:46;6.13;;;4.25;;
32864;SDS011;19219;44.500;11.188;2023-06-14T06:18:12;4.30;;;3.70;;
32864;SDS011;19219;44.500;11.188;2023-06-14T06:20:37;11.15;;;7.63;;
32864;SDS011;19219;44.500;11.188;2023-06-14T06:23:03;4.97;;;4.20;;
32864;SDS011;19219;44.500;11.188;2023-06-14T06:25:28;11.38;;;4.38;;
32864;SDS011;19219;44.500;11.188;2023-06-14T06:27:57;5.97;;;3.55;;
32864;SDS011;19219;44.500;11.188;2023-06-14T06:30:23;3.95;;;3.58;;
32864;SDS011;19219;44.500;11.188;2023-06-14T06:32:49;7.80;;;3.35;;
32864;SDS011;19219;44.500;11.188;2023-06-14T06:35:15;3.17;;;2.88;;
32864;SDS011;19219;44.500;11.188;2023-06-14T06:37:41;2.78;;;2.55;;
32864;SDS011;19219;44.500;11.188;2023-06-14T06:40:07;5.50;;;3.33;;
32864;SDS011;19219;44.500;11.188;2023-06-14T06:42:33;3.42;;;2.80;;
32864;SDS011;19219;44.500;11.188;2023-06-14T06:44:59;3.83;;;3.28;;
32864;SDS011;19219;44.500;11.188;2023-06-14T06:47:25;4.28;;;2.92;;
32864;SDS011;19219;44.500;11.188;2023-06-14T06:49:51;3.85;;;3.08;;
32864;SDS011;19219;44.500;11.188;2023-06-14T06:52:17;6.88;;;3.53;;
32864;SDS011;19219;44.500;11.188;2023-06-14T06:54:42;3.17;;;2.88;;
32864;SDS011;19219;44.500;11.188;2023-06-14T06:57:08;6.22;;;3.78;;
32864;SDS011;19219;44.500;11.188;2023-06-14T06:59:36;5.63;;;2.97;;
32864;SDS011;19219;44.500;11.188;2023-06-14T07:02:02;5.13;;;3.05;;
32864;SDS011;19219;44.500;11.188;2023-06-14T07:04:28;10.20;;;4.75;;
32864;SDS011;19219;44.500;11.188;2023-06-14T07:06:53;4.43;;;3.67;;
32864;SDS011;19219;44.500;11.188;2023-06-14T07:09:19;5.35;;;3.65;;
32864;SDS011;19219;44.500;11.188;2023-06-14T07:11:46;6.82;;;3.13;;
32864;SDS011;19219;44.500;11.188;2023-06-14T07:14:12;3.85;;;3.00;;
32864;SDS011;19219;44.500;11.188;2023-06-14T07:16:38;4.80;;;3.47;;
32864;SDS011;19219;44.500;11.188;2023-06-14T07:19:04;4.88;;;3.35;;
32864;SDS011;19219;44.500;11.188;2023-06-14T07:21:30;3.72;;;3.30;;
32864;SDS011;19219;44.500;11.188;2023-06-14T07:23:56;3.63;;;2.95;;
32864;SDS011;19219;44.500;11.188;2023-06-14T07:26:22;4.07;;;3.17;;
32864;SDS011;19219;44.500;11.188;2023-06-14T07:28:48;4.85;;;2.97;;
32864;SDS011;19219;44.500;11.188;2023-06-14T07:31:17;4.55;;;2.92;;
32864;SDS011;19219;44.500;11.188;2023-06-14T07:33:44;5.57;;;3.22;;
32864;SDS011;19219;44.500;11.188;2023-06-14T07:36:10;3.03;;;2.70;;
32864;SDS011;19219;44.500;11.188;2023-06-14T07:38:35;4.55;;;3.20;;
32864;SDS011;19219;44.500;11.188;2023-06-14T07:41:01;4.22;;;2.67;;
32864;SDS011;19219;44.500;11.188;2023-06-14T07:43:27;4.70;;;3.30;;
32864;SDS011;19219;44.500;11.188;2023-06-14T07:45:53;4.32;;;2.38;;
32864;SDS011;19219;44.500;11.188;2023-06-14T07:48:19;4.55;;;2.88;;
32864;SDS011;19219;44.500;11.188;2023-06-14T07:50:44;5.40;;;3.75;;
32864;SDS011;19219;44.500;11.188;2023-06-14T07:53:10;4.80;;;3.20;;
32864;SDS011;19219;44.500;11.188;2023-06-14T07:55:36;3.58;;;2.47;;
32864;SDS011;19219;44.500;11.188;2023-06-14T07:58:07;6.43;;;4.55;;
32864;SDS011;19219;44.500;11.188;2023-06-14T08:00:33;5.75;;;4.88;;
32864;SDS011;19219;44.500;11.188;2023-06-14T08:02:59;7.22;;;4.70;;
32864;SDS011;19219;44.500;11.188;2023-06-14T08:05:25;15.80;;;11.38;;
32864;SDS011;19219;44.500;11.188;2023-06-14T08:07:51;8.27;;;5.80;;
32864;SDS011;19219;44.500;11.188;2023-06-14T08:10:17;7.35;;;4.90;;
32864;SDS011;19219;44.500;11.188;2023-06-14T08:12:43;5.50;;;4.10;;
32864;SDS011;19219;44.500;11.188;2023-06-14T08:15:09;4.55;;;4.00;;
32864;SDS011;19219;44.500;11.188;2023-06-14T08:17:35;7.65;;;4.45;;
32864;SDS011;19219;44.500;11.188;2023-06-14T08:20:01;5.25;;;4.43;;
32864;SDS011;19219;44.500;11.188;2023-06-14T08:43:12;5.55;;;4.18;;
32864;SDS011;19219;44.500;11.188;2023-06-14T08:45:38;6.88;;;5.28;;
32864;SDS011;19219;44.500;11.188;2023-06-14T08:48:04;5.28;;;4.28;;
32864;SDS011;19219;44.500;11.188;2023-06-14T08:50:31;4.75;;;4.22;;
32864;SDS011;19219;44.500;11.188;2023-06-14T08:52:59;12.25;;;5.20;;
32864;SDS011;19219;44.500;11.188;2023-06-14T08:55:27;9.50;;;5.68;;
32864;SDS011;19219;44.500;11.188;2023-06-14T08:57:57;8.63;;;6.07;;
32864;SDS011;19219;44.500;11.188;2023-06-14T09:00:24;19.17;;;9.07;;
32864;SDS011;19219;44.500;11.188;2023-06-14T09:02:51;10.20;;;6.38;;
32864;SDS011;19219;44.500;11.188;2023-06-14T09:05:22;7.72;;;5.82;;
32864;SDS011;19219;44.500;11.188;2023-06-14T09:07:48;13.75;;;8.55;;
32864;SDS011;19219;44.500;11.188;2023-06-14T09:10:16;9.73;;;6.57;;
32864;SDS011;19219;44.500;11.188;2023-06-14T09:12:42;6.97;;;5.78;;
32864;SDS011;19219;44.500;11.188;2023-06-14T09:15:08;10.30;;;6.10;;
32864;SDS011;19219;44.500;11.188;2023-06-14T09:17:35;8.68;;;6.35;;
32864;SDS011;19219;44.500;11.188;2023-06-14T09:20:04;9.63;;;5.90;;
32864;SDS011;19219;44.500;11.188;2023-06-14T09:22:32;7.50;;;5.90;;
32864;SDS011;19219;44.500;11.188;2023-06-14T09:24:58;9.13;;;7.80;;
32864;SDS011;19219;44.500;11.188;2023-06-14T09:27:30;6.72;;;5.88;;
32864;SDS011;19219;44.500;11.188;2023-06-14T09:29:57;7.65;;;5.78;;
32864;SDS011;19219;44.500;11.188;2023-06-14T09:32:23;7.13;;;5.00;;
32864;SDS011;19219;44.500;11.188;2023-06-14T09:34:49;9.43;;;6.45;;
32864;SDS011;19219;44.500;11.188;2023-06-14T09:37:31;8.15;;;5.13;;
32864;SDS011;19219;44.500;11.188;2023-06-14T09:39:57;6.68;;;5.35;;
32864;SDS011;19219;44.500;11.188;2023-06-14T09:42:23;6.07;;;5.18;;
32864;SDS011;19219;44.500;11.188;2023-06-14T09:44:53;6.65;;;4.47;;
32864;SDS011;19219;44.500;11.188;2023-06-14T09:47:20;6.45;;;5.22;;
32864;SDS011;19219;44.500;11.188;2023-06-14T09:49:47;9.32;;;5.55;;
32864;SDS011;19219;44.500;11.188;2023-06-14T09:52:14;5.55;;;5.05;;
32864;SDS011;19219;44.500;11.188;2023-06-14T09:54:41;6.65;;;5.20;;
32864;SDS011;19219;44.500;11.188;2023-06-14T09:57:08;8.68;;;6.00;;
32864;SDS011;19219;44.500;11.188;2023-06-14T09:59:43;8.85;;;6.18;;
32864;SDS011;19219;44.500;11.188;2023-06-14T10:02:26;8.13;;;5.70;;
32864;SDS011;19219;44.500;11.188;2023-06-14T10:04:56;7.85;;;6.10;;
32864;SDS011;19219;44.500;11.188;2023-06-14T10:07:27;6.53;;;5.82;;
32864;SDS011;19219;44.500;11.188;2023-06-14T10:09:56;6.32;;;5.70;;
32864;SDS011;19219;44.500;11.188;2023-06-14T10:12:23;6.28;;;5.57;;
32864;SDS011;19219;44.500;11.188;2023-06-14T10:14:49;6.13;;;4.78;;
32864;SDS011;19219;44.500;11.188;2023-06-14T10:17:32;8.20;;;5.88;;
32864;SDS011;19219;44.500;11.188;2023-06-14T10:20:25;7.30;;;5.43;;
32864;SDS011;19219;44.500;11.188;2023-06-14T10:22:56;8.23;;;5.13;;
32864;SDS011;19219;44.500;11.188;2023-06-14T10:25:29;9.80;;;5.45;;
32864;SDS011;19219;44.500;11.188;2023-06-14T10:28:02;8.93;;;7.45;;
32864;SDS011;19219;44.500;11.188;2023-06-14T10:30:38;9.40;;;6.50;;
32864;SDS011;19219;44.500;11.188;2023-06-14T10:33:07;7.43;;;6.72;;
32864;SDS011;19219;44.500;11.188;2023-06-14T10:35:33;10.90;;;6.65;;
32864;SDS011;19219;44.500;11.188;2023-06-14T10:38:09;8.38;;;6.90;;
32864;SDS011;19219;44.500;11.188;2023-06-14T10:40:36;12.05;;;8.80;;
32864;SDS011;19219;44.500;11.188;2023-06-14T10:43:20;11.90;;;8.32;;
32864;SDS011;19219;44.500;11.188;2023-06-14T10:48:44;12.25;;;9.13;;
32864;SDS011;19219;44.500;11.188;2023-06-14T10:51:19;7.65;;;6.53;;
32864;SDS011;19219;44.500;11.188;2023-06-14T10:53:48;8.65;;;6.45;;
32864;SDS011;19219;44.500;11.188;2023-06-14T10:56:53;8.88;;;5.85;;
32864;SDS011;19219;44.500;11.188;2023-06-14T10:59:18;7.10;;;5.85;;
32864;SDS011;19219;44.500;11.188;2023-06-14T11:04:27;7.28;;;5.18;;
32864;SDS011;19219;44.500;11.188;2023-06-14T11:07:20;10.02;;;5.80;;
32864;SDS011;19219;44.500;11.188;2023-06-14T11:12:56;15.10;;;9.38;;
32864;SDS011;19219;44.500;11.188;2023-06-14T11:15:31;11.35;;;9.88;;
32864;SDS011;19219;44.500;11.188;2023-06-14T11:18:00;18.85;;;9.88;;
32864;SDS011;19219;44.500;11.188;2023-06-14T11:20:29;12.40;;;9.73;;
32864;SDS011;19219;44.500;11.188;2023-06-14T11:22:56;13.63;;;11.30;;
32864;SDS011;19219;44.500;11.188;2023-06-14T11:25:22;11.23;;;9.15;;
32864;SDS011;19219;44.500;11.188;2023-06-14T11:27:51;15.95;;;10.13;;
32864;SDS011;19219;44.500;11.188;2023-06-14T11:30:17;17.85;;;12.68;;
32864;SDS011;19219;44.500;11.188;2023-06-14T11:32:46;16.52;;;12.23;;
32864;SDS011;19219;44.500;11.188;2023-06-14T11:35:16;10.50;;;9.40;;
32864;SDS011;19219;44.500;11.188;2023-06-14T11:37:42;13.10;;;9.68;;
32864;SDS011;19219;44.500;11.188;2023-06-14T11:40:09;10.55;;;8.82;;
32864;SDS011;19219;44.500;11.188;2023-06-14T11:42:37;15.02;;;10.00;;
32864;SDS011;19219;44.500;11.188;2023-06-14T11:45:07;10.27;;;8.15;;
32864;SDS011;19219;44.500;11.188;2023-06-14T11:47:34;12.65;;;7.68;;
32864;SDS011;19219;44.500;11.188;2023-06-14T11:50:01;7.55;;;6.63;;
32864;SDS011;19219;44.500;11.188;2023-06-14T11:52:28;8.13;;;7.25;;
32864;SDS011;19219;44.500;11.188;2023-06-14T11:54:53;10.60;;;6.78;;
32864;SDS011;19219;44.500;11.188;2023-06-14T11:57:22;9.38;;;7.72;;
32864;SDS011;19219;44.500;11.188;2023-06-14T11:59:48;13.15;;;9.43;;
32864;SDS011;19219;44.500;11.188;2023-06-14T12:02:18;11.13;;;7.95;;
32864;SDS011;19219;44.500;11.188;2023-06-14T12:04:47;13.82;;;8.35;;
32864;SDS011;19219;44.500;11.188;2023-06-14T12:07:16;9.73;;;8.23;;
32864;SDS011;19219;44.500;11.188;2023-06-14T12:12:18;11.25;;;7.05;;
32864;SDS011;19219;44.500;11.188;2023-06-14T12:14:46;11.68;;;8.25;;
32864;SDS011;19219;44.500;11.188;2023-06-14T12:17:13;13.90;;;7.88;;
32864;SDS011;19219;44.500;11.188;2023-06-14T12:19:41;11.95;;;8.50;;
32864;SDS011;19219;44.500;11.188;2023-06-14T12:22:11;36.60;;;20.45;;
32864;SDS011;19219;44.500;11.188;2023-06-14T12:24:38;34.83;;;18.75;;
32864;SDS011;19219;44.500;11.188;2023-06-14T12:27:04;23.58;;;14.35;;
32864;SDS011;19219;44.500;11.188;2023-06-14T12:29:30;15.32;;;10.85;;
32864;SDS011;19219;44.500;11.188;2023-06-14T12:31:57;18.80;;;10.02;;
32864;SDS011;19219;44.500;11.188;2023-06-14T12:34:23;13.80;;;9.73;;
32864;SDS011;19219;44.500;11.188;2023-06-14T12:36:50;18.73;;;11.27;;
32864;SDS011;19219;44.500;11.188;2023-06-14T12:39:16;13.57;;;10.80;;
32864;SDS011;19219;44.500;11.188;2023-06-14T12:41:42;25.20;;;17.58;;
32864;SDS011;19219;44.500;11.188;2023-06-14T12:44:07;24.40;;;15.00;;
32864;SDS011;19219;44.500;11.188;2023-06-14T12:46:33;19.98;;;14.43;;
32864;SDS011;19219;44.500;11.188;2023-06-14T12:49:04;20.25;;;14.00;;
32864;SDS011;19219;44.500;11.188;2023-06-14T12:51:31;30.67;;;19.60;;
32864;SDS011;19219;44.500;11.188;2023-06-14T12:53:57;26.17;;;17.15;;
32864;SDS011;19219;44.500;11.188;2023-06-14T12:56:23;24.80;;;19.25;;
32864;SDS011;19219;44.500;11.188;2023-06-14T12:58:48;25.52;;;15.20;;
32864;SDS011;19219;44.500;11.188;2023-06-14T13:01:14;17.65;;;11.82;;
32864;SDS011;19219;44.500;11.188;2023-06-14T13:03:40;13.38;;;10.73;;
32864;SDS011;19219;44.500;11.188;2023-06-14T13:06:05;13.20;;;10.27;;
32864;SDS011;19219;44.500;11.188;2023-06-14T13:08:31;15.18;;;12.77;;
32864;SDS011;19219;44.500;11.188;2023-06-14T13:10:57;21.58;;;12.98;;
32864;SDS011;19219;44.500;11.188;2023-06-14T13:13:22;25.13;;;14.85;;
32864;SDS011;19219;44.500;11.188;2023-06-14T13:15:49;15.90;;;12.13;;
32864;SDS011;19219;44.500;11.188;2023-06-14T13:18:15;16.15;;;10.98;;
32864;SDS011;19219;44.500;11.188;2023-06-14T13:20:41;14.77;;;10.38;;
32864;SDS011;19219;44.500;11.188;2023-06-14T13:23:07;14.02;;;9.48;;
32864;SDS011;19219;44.500;11.188;2023-06-14T13:25:34;10.18;;;7.78;;
32864;SDS011;19219;44.500;11.188;2023-06-14T13:28:01;9.27;;;7.40;;
32864;SDS011;19219;44.500;11.188;2023-06-14T13:30:27;9.50;;;7.70;;
32864;SDS011;19219;44.500;11.188;2023-06-14T13:32:53;11.95;;;7.78;;
32864;SDS011;19219;44.500;11.188;2023-06-14T13:35:19;9.10;;;6.63;;
32864;SDS011;19219;44.500;11.188;2023-06-14T13:37:44;9.63;;;6.45;;
32864;SDS011;19219;44.500;11.188;2023-06-14T13:40:10;8.93;;;6.45;;
32864;SDS011;19219;44.500;11.188;2023-06-14T13:42:37;11.73;;;6.20;;
32864;SDS011;19219;44.500;11.188;2023-06-14T13:45:03;9.52;;;6.70;;
32864;SDS011;19219;44.500;11.188;2023-06-14T13:47:30;9.45;;;5.57;;
32864;SDS011;19219;44.500;11.188;2023-06-14T13:49:56;10.40;;;6.28;;
32864;SDS011;19219;44.500;11.188;2023-06-14T13:52:23;8.73;;;7.43;;
32864;SDS011;19219;44.500;11.188;2023-06-14T13:54:48;9.55;;;6.07;;
32864;SDS011;19219;44.500;11.188;2023-06-14T13:57:14;9.52;;;6.00;;
32864;SDS011;19219;44.500;11.188;2023-06-14T13:59:41;8.05;;;6.75;;
32864;SDS011;19219;44.500;11.188;2023-06-14T14:02:09;7.18;;;6.05;;
32864;SDS011;19219;44.500;11.188;2023-06-14T14:04:35;7.15;;;5.65;;
32864;SDS011;19219;44.500;11.188;2023-06-14T14:07:02;5.32;;;4.82;;
32864;SDS011;19219;44.500;11.188;2023-06-14T14:09:28;6.35;;;5.22;;
32864;SDS011;19219;44.500;11.188;2023-06-14T14:11:54;4.93;;;4.43;;
32864;SDS011;19219;44.500;11.188;2023-06-14T14:14:20;8.43;;;5.68;;
32864;SDS011;19219;44.500;11.188;2023-06-14T14:16:46;10.65;;;5.20;;
32864;SDS011;19219;44.500;11.188;2023-06-14T14:19:12;6.68;;;5.47;;
32864;SDS011;19219;44.500;11.188;2023-06-14T14:21:37;6.18;;;5.50;;
32864;SDS011;19219;44.500;11.188;2023-06-14T14:24:03;6.50;;;4.88;;
32864;SDS011;19219;44.500;11.188;2023-06-14T14:26:29;6.03;;;4.70;;
32864;SDS011;19219;44.500;11.188;2023-06-14T14:28:55;6.13;;;5.53;;
32864;SDS011;19219;44.500;11.188;2023-06-14T14:31:20;6.88;;;5.35;;
32864;SDS011;19219;44.500;11.188;2023-06-14T14:33:46;11.00;;;5.90;;
32864;SDS011;19219;44.500;11.188;2023-06-14T14:36:12;6.45;;;5.85;;
32864;SDS011;19219;44.500;11.188;2023-06-14T14:38:38;6.97;;;6.20;;
32864;SDS011;19219;44.500;11.188;2023-06-14T14:41:04;9.13;;;6.00;;
32864;SDS011;19219;44.500;11.188;2023-06-14T14:43:30;8.68;;;5.20;;
32864;SDS011;19219;44.500;11.188;2023-06-14T14:45:57;6.28;;;4.78;;
32864;SDS011;19219;44.500;11.188;2023-06-14T14:48:22;6.80;;;5.50;;
32864;SDS011;19219;44.500;11.188;2023-06-14T14:50:48;6.32;;;5.72;;
32864;SDS011;19219;44.500;11.188;2023-06-14T14:53:14;6.25;;;5.35;;
32864;SDS011;19219;44.500;11.188;2023-06-14T14:55:43;8.65;;;5.65;;
32864;SDS011;19219;44.500;11.188;2023-06-14T14:58:09;5.57;;;5.07;;
32864;SDS011;19219;44.500;11.188;2023-06-14T15:00:35;5.68;;;4.90;;
32864;SDS011;19219;44.500;11.188;2023-06-14T15:03:00;6.30;;;5.50;;
32864;SDS011;19219;44.500;11.188;2023-06-14T15:05:26;5.15;;;4.55;;
32864;SDS011;19219;44.500;11.188;2023-06-14T15:07:52;8.55;;;5.60;;